Time;durP1;ratioP1;P1;durP2;ratioP2;P2;SDS_P1;SDS_P2;PMS_P1;PMS_P2;Temp;Humidity;BMP_temperature;BMP_pressure;BME280_temperature;BME280_humidity;BME280_pressure;Samples;Min_cycle;Max_cycle;Signal;HPM_P1;HPM_P2
2023/01/18 00:01:09;;;;;;;12.82;8.15;;;;;;;2.19;82.75;99010.06;4680950;30;20054;-67
2023/01/18 00:03:37;;;;;;;13.80;8.43;;;;;;;2.17;83.00;98996.06;4696421;30;20058;-66
2023/01/18 00:06:06;;;;;;;13.43;7.55;;;;;;;2.19;82.93;99009.22;4681290;30;20058;-65
2023/01/18 00:08:35;;;;;;;13.30;6.85;;;;;;;2.20;82.34;99010.88;4681642;30;20062;-66
2023/01/18 00:11:12;;;;;;;13.88;7.50;;;;;;;2.19;82.35;99009.22;4682175;30;20150;-65
2023/01/18 00:13:40;;;;;;;14.43;7.53;;;;;;;2.16;81.96;99009.75;4683270;30;20053;-67
2023/01/18 00:16:18;;;;;;;13.25;7.57;;;;;;;2.09;82.23;99008.13;4682262;30;20062;-68
2023/01/18 00:18:51;;;;;;;14.15;7.85;;;;;;;2.04;82.66;99013.41;4683175;30;20062;-66
2023/01/18 00:21:19;;;;;;;13.07;7.35;;;;;;;2.04;83.51;99010.72;4701874;30;20067;-66
2023/01/18 00:23:47;;;;;;;13.32;7.55;;;;;;;2.08;83.56;99008.34;4702580;30;20193;-66
2023/01/18 00:26:14;;;;;;;13.15;7.45;;;;;;;2.10;83.01;99000.84;4704919;30;20061;-67
2023/01/18 00:28:42;;;;;;;17.10;7.88;;;;;;;2.09;82.94;99009.97;4706110;30;20467;-66
2023/01/18 00:31:15;;;;;;;13.50;6.90;;;;;;;2.07;82.43;99002.19;4719894;30;20053;-66
2023/01/18 00:33:44;;;;;;;13.93;7.03;;;;;;;2.06;82.99;99011.28;4720773;30;20049;-66
2023/01/18 00:36:12;;;;;;;15.40;7.05;;;;;;;2.07;82.95;99015.63;4706055;30;20529;-66
2023/01/18 00:38:40;;;;;;;13.60;6.90;;;;;;;2.06;82.69;99013.97;4705870;30;20470;-66
2023/01/18 00:41:08;;;;;;;16.15;8.23;;;;;;;2.04;82.69;99008.03;4720050;30;20057;-67
2023/01/18 00:43:38;;;;;;;15.68;7.50;;;;;;;2.03;82.80;99009.13;4721421;30;20049;-67
2023/01/18 00:46:10;;;;;;;13.32;7.07;;;;;;;2.03;82.62;99017.19;4721152;30;20459;-67
2023/01/18 00:48:39;;;;;;;12.23;7.18;;;;;;;2.03;82.50;99011.81;4720850;30;20079;-66
2023/01/18 00:51:10;;;;;;;16.50;7.78;;;;;;;2.04;82.48;99013.41;4721212;30;20052;-66
2023/01/18 00:53:39;;;;;;;12.85;6.65;;;;;;;2.03;82.21;99011.00;4691389;30;20080;-67
2023/01/18 00:56:08;;;;;;;12.95;7.22;;;;;;;2.02;82.44;99012.88;4691715;30;20057;-66
2023/01/18 00:58:36;;;;;;;13.90;7.00;;;;;;;2.02;82.45;99014.75;4720061;30;20137;-65
2023/01/18 01:01:05;;;;;;;13.02;6.85;;;;;;;1.99;82.33;99016.06;4719603;30;20061;-66
2023/01/18 01:06:43;;;;;;;13.70;6.57;;;;;;;2.00;82.84;99017.69;4705588;30;20091;-65
2023/01/18 01:06:45;;;;;;;12.48;6.78;;;;;;;2.01;82.33;99022.00;4705358;30;20068;-68
2023/01/18 01:09:25;;;;;;;13.05;7.68;;;;;;;2.01;82.95;99022.00;4718617;30;20103;-66
2023/01/18 01:26:09;;;;;;;14.75;7.03;;;;;;;1.91;83.05;99032.66;4720449;30;20052;-67
2023/01/18 01:28:48;;;;;;;16.00;7.40;;;;;;;1.88;83.39;99030.50;4704875;30;20061;-66
2023/01/18 01:31:17;;;;;;;13.50;6.97;;;;;;;1.89;83.57;99032.09;4690701;30;20059;-66
2023/01/18 01:33:45;;;;;;;14.02;7.45;;;;;;;1.88;83.71;99031.28;4719121;30;20053;-67
2023/01/18 01:36:16;;;;;;;13.75;7.10;;;;;;;1.87;83.68;99031.53;4719373;30;20132;-66
2023/01/18 01:38:44;;;;;;;14.68;7.47;;;;;;;1.87;83.91;99035.03;4704831;30;20099;-66
2023/01/18 01:41:31;;;;;;;14.02;7.15;;;;;;;1.90;84.12;99036.41;4719887;30;20261;-67
2023/01/18 01:44:28;;;;;;;12.02;7.13;;;;;;;1.91;83.82;99046.09;4714256;30;20057;-66
2023/01/18 01:46:58;;;;;;;13.98;7.50;;;;;;;1.87;83.38;99050.34;4719827;30;20084;-65
2023/01/18 01:49:48;;;;;;;13.63;7.45;;;;;;;1.86;83.38;99057.59;4719881;30;20517;-67
2023/01/18 01:52:19;;;;;;;11.20;6.82;;;;;;;1.83;83.90;99065.34;4720269;30;20064;-67
2023/01/18 01:54:58;;;;;;;13.18;7.07;;;;;;;1.80;84.24;99060.47;4705167;30;20053;-67
2023/01/18 01:57:52;;;;;;;15.52;7.93;;;;;;;1.78;84.35;99055.38;4704422;30;20495;-66
2023/01/18 02:00:24;;;;;;;16.40;7.72;;;;;;;1.78;84.52;99057.22;4719510;30;20053;-66
2023/01/18 02:03:02;;;;;;;13.75;7.13;;;;;;;1.75;84.46;99053.19;4690991;30;20053;-66
2023/01/18 02:05:32;;;;;;;13.75;7.22;;;;;;;1.74;84.32;99056.13;4690425;30;20061;-66
2023/01/18 02:08:01;;;;;;;14.05;7.18;;;;;;;1.72;84.60;99058.25;4719564;30;20049;-67
2023/01/18 02:10:29;;;;;;;13.88;7.32;;;;;;;1.70;84.39;99055.81;4720004;30;20136;-66
2023/01/18 02:12:58;;;;;;;14.15;7.53;;;;;;;1.68;84.78;99058.78;4718930;30;20056;-66
2023/01/18 02:15:42;;;;;;;17.65;8.15;;;;;;;1.66;84.85;99055.53;4704412;30;20053;-66
2023/01/18 02:18:36;;;;;;;13.65;7.15;;;;;;;1.66;84.88;99052.00;4718735;30;20053;-65
2023/01/18 02:21:10;;;;;;;18.08;7.28;;;;;;;1.64;84.81;99049.59;4689469;30;20414;-66
2023/01/18 02:24:07;;;;;;;12.85;7.30;;;;;;;1.61;85.13;99058.16;4719238;30;20049;-66
2023/01/18 02:26:37;;;;;;;11.13;6.82;;;;;;;1.60;85.34;99059.22;4720192;30;20081;-66
2023/01/18 02:29:16;;;;;;;14.18;7.03;;;;;;;1.61;85.40;99055.47;4704004;30;20049;-65
2023/01/18 02:31:50;;;;;;;12.20;6.93;;;;;;;1.61;85.29;99062.69;4703777;30;20568;-66
2023/01/18 02:34:58;;;;;;;12.73;7.25;;;;;;;1.61;85.64;99070.75;4703665;30;20414;-65
2023/01/18 02:37:38;;;;;;;14.48;7.25;;;;;;;1.60;85.55;99072.63;4714629;30;20127;-66
2023/01/18 02:40:10;;;;;;;14.38;7.18;;;;;;;1.60;85.62;99072.63;4703776;30;20057;-66
2023/01/18 02:48:20;;;;;;;12.85;7.13;;;;;;;1.60;86.22;99077.19;4717506;30;20053;-66
2023/01/18 02:50:48;;;;;;;15.13;7.78;;;;;;;1.63;86.15;99077.47;4717892;30;20456;-66
2023/01/18 02:53:16;;;;;;;13.63;7.43;;;;;;;1.62;86.12;99070.50;4703523;30;20574;-66
2023/01/18 02:55:44;;;;;;;10.90;6.63;;;;;;;1.60;86.01;99075.31;4719160;30;20115;-67
2023/01/18 02:58:33;;;;;;;14.10;7.10;;;;;;;1.57;86.36;99072.34;4719094;30;20080;-66
2023/01/18 03:01:09;;;;;;;16.92;7.80;;;;;;;1.57;86.57;99078.50;4703138;30;20089;-66
2023/01/18 03:03:40;;;;;;;15.50;7.90;;;;;;;1.59;86.50;99072.88;4719582;30;20112;-65
2023/01/18 03:06:08;;;;;;;13.40;7.60;;;;;;;1.56;86.69;99079.56;4718009;30;20465;-66
2023/01/18 03:08:50;;;;;;;13.02;7.85;;;;;;;1.55;86.76;99077.94;4715533;30;20049;-66
2023/01/18 03:11:26;;;;;;;15.73;7.32;;;;;;;1.55;86.96;99083.31;4707517;30;20088;-64
2023/01/18 03:13:54;;;;;;;;;;;;;;;1.55;87.05;99086.00;4703744;30;20482;-64
2023/01/18 03:16:56;;;;;;;15.30;7.30;;;;;;;1.58;87.33;99085.50;4716446;30;19935;-65
2023/01/18 03:25:17;;;;;;;14.73;7.35;;;;;;;1.65;86.82;99080.72;4701047;30;20194;-66
2023/01/18 03:36:18;;;;;;;14.00;7.20;;;;;;;1.64;85.70;99089.06;4705715;30;20466;-67
2023/01/18 03:38:57;;;;;;;13.55;6.88;;;;;;;1.58;85.91;99090.84;4703538;30;20053;-67
2023/01/18 03:41:28;;;;;;;11.05;6.93;;;;;;;1.54;85.82;99100.50;4718321;30;20136;-71
2023/01/18 03:43:59;;;;;;;12.55;7.15;;;;;;;1.50;85.84;99099.38;4702400;30;20091;-67
2023/01/18 03:46:30;;;;;;;11.57;7.00;;;;;;;1.45;86.10;99102.00;4718319;30;20122;-67
2023/01/18 03:48:59;;;;;;;12.13;7.10;;;;;;;1.40;86.27;99105.41;4702599;30;20621;-66
2023/01/18 03:51:29;;;;;;;12.68;6.68;;;;;;;1.41;86.68;99106.22;4717363;30;20111;-68
2023/01/18 03:54:14;;;;;;;12.88;7.28;;;;;;;1.44;87.21;99103.03;4717316;30;20053;-67
2023/01/18 03:56:53;;;;;;;14.38;7.72;;;;;;;1.45;87.20;99107.34;4718596;30;20061;-65
2023/01/18 03:59:20;;;;;;;14.75;7.50;;;;;;;1.44;87.16;99117.28;4718131;30;20057;-66
2023/01/18 04:01:48;;;;;;;13.13;6.93;;;;;;;1.43;87.19;99125.56;4693833;30;20057;-66
2023/01/18 04:04:16;;;;;;;13.00;6.70;;;;;;;1.43;87.46;99123.69;4708934;30;20084;-66
2023/01/18 04:06:44;;;;;;;12.40;6.43;;;;;;;1.46;87.45;99130.44;4711429;30;20590;-65
2023/01/18 04:09:11;;;;;;;12.35;6.70;;;;;;;1.45;87.23;99134.19;4723533;30;20101;-68
2023/01/18 04:11:39;;;;;;;11.75;6.45;;;;;;;1.44;87.25;99132.56;4707083;30;20117;-66
2023/01/18 04:14:07;;;;;;;14.27;7.53;;;;;;;1.42;87.07;99140.03;4705878;30;20056;-66
2023/01/18 04:16:34;;;;;;;14.60;7.30;;;;;;;1.36;87.01;99139.19;4712432;30;20053;-65
2023/01/18 04:19:02;;;;;;;12.82;6.93;;;;;;;1.32;86.89;99138.03;4720849;30;20049;-66
2023/01/18 04:21:30;;;;;;;13.25;6.65;;;;;;;1.28;87.17;99137.75;4718215;30;20064;-65
2023/01/18 04:23:57;;;;;;;12.82;6.70;;;;;;;1.25;87.49;99138.25;4699873;30;20049;-66
2023/01/18 04:26:25;;;;;;;11.68;6.55;;;;;;;1.26;87.72;99137.16;4699421;30;20152;-67
2023/01/18 04:28:53;;;;;;;12.07;6.40;;;;;;;1.27;87.49;99146.88;4700668;30;20551;-66
2023/01/18 04:31:21;;;;;;;12.13;6.05;;;;;;;1.26;87.50;99139.84;4700923;30;20056;-66
2023/01/18 04:33:50;;;;;;;11.63;6.22;;;;;;;1.24;87.16;99141.97;4689906;30;20120;-66
2023/01/18 04:36:19;;;;;;;11.45;6.18;;;;;;;1.22;87.39;99138.72;4682119;30;20058;-65
2023/01/18 04:38:50;;;;;;;17.67;7.53;;;;;;;1.18;87.70;99140.28;4683560;30;20102;-65
2023/01/18 04:41:18;;;;;;;14.32;7.53;;;;;;;1.16;87.63;99139.72;4682887;30;20540;-65
2023/01/18 04:43:46;;;;;;;13.57;6.75;;;;;;;1.14;87.52;99139.16;4683915;30;20463;-66
2023/01/18 04:46:14;;;;;;;12.80;7.05;;;;;;;1.12;87.88;99143.16;4683604;30;20058;-66
2023/01/18 04:48:42;;;;;;;14.15;6.80;;;;;;;1.10;88.17;99146.06;4683317;30;20061;-66
2023/01/18 04:51:13;;;;;;;14.32;7.13;;;;;;;1.09;88.10;99157.88;4696943;30;20064;-67
2023/01/18 04:53:42;;;;;;;13.38;6.78;;;;;;;1.08;87.80;99152.75;4682882;30;20058;-66
2023/01/18 04:56:11;;;;;;;13.05;6.63;;;;;;;1.08;88.46;99150.88;4668318;30;20165;-66
2023/01/18 04:58:38;;;;;;;12.10;6.53;;;;;;;1.09;88.25;99155.19;4682177;30;20054;-66
2023/01/18 05:01:07;;;;;;;11.43;6.25;;;;;;;1.10;88.37;99154.13;4668097;30;20522;-65
2023/01/18 05:03:37;;;;;;;11.90;6.88;;;;;;;1.09;88.46;99171.28;4682336;30;20056;-65
2023/01/18 05:06:07;;;;;;;11.15;6.50;;;;;;;1.10;88.41;99167.53;4682005;30;20062;-65
2023/01/18 05:08:39;;;;;;;13.00;7.00;;;;;;;1.13;88.49;99169.72;4703179;30;20060;-68
2023/01/18 05:11:10;;;;;;;14.00;6.93;;;;;;;1.14;88.20;99176.72;4701096;30;20065;-67
2023/01/18 05:13:38;;;;;;;13.73;6.32;;;;;;;1.14;87.77;99176.72;4688411;30;20057;-67
2023/01/18 05:16:09;;;;;;;11.52;6.00;;;;;;;1.14;87.80;99175.91;4703623;30;20547;-66
2023/01/18 05:18:36;;;;;;;12.43;6.55;;;;;;;1.13;87.83;99175.09;4702324;30;20060;-66
2023/01/18 05:21:04;;;;;;;14.05;6.85;;;;;;;1.12;87.49;99178.81;4704284;30;20062;-67
2023/01/18 05:23:32;;;;;;;11.18;5.88;;;;;;;1.10;88.00;99180.94;4705321;30;20057;-65
2023/01/18 05:25:59;;;;;;;14.95;7.05;;;;;;;1.09;87.98;99184.69;4720867;30;20145;-67
2023/01/18 05:28:28;;;;;;;12.60;6.68;;;;;;;1.09;88.25;99190.06;4720878;30;20487;-67
2023/01/18 05:30:55;;;;;;;14.23;6.70;;;;;;;1.08;88.28;99188.41;4719228;30;20164;-67
2023/01/18 05:33:23;;;;;;;13.10;6.90;;;;;;;1.07;88.17;99189.47;4720578;30;20049;-65
2023/01/18 05:35:53;;;;;;;14.15;6.93;;;;;;;1.06;88.16;99193.22;4705566;30;20140;-67
2023/01/18 05:38:22;;;;;;;13.23;7.57;;;;;;;1.01;88.37;99195.81;4720244;30;20090;-66
2023/01/18 05:40:53;;;;;;;13.52;7.53;;;;;;;0.84;89.68;99199.34;4720680;30;20134;-65
2023/01/18 05:43:25;;;;;;;17.98;9.13;;;;;;;0.77;89.92;99197.84;4704776;30;20136;-65
2023/01/18 05:45:53;;;;;;;15.38;8.15;;;;;;;0.74;90.30;99199.16;4690139;30;20084;-68
2023/01/18 05:48:21;;;;;;;14.55;7.72;;;;;;;0.72;90.98;99201.28;4726564;30;20119;-68
2023/01/18 05:50:49;;;;;;;11.85;6.30;;;;;;;0.79;90.96;99191.19;4706791;30;20061;-66
2023/01/18 05:53:20;;;;;;;13.05;6.07;;;;;;;0.85;90.47;99209.00;4719903;30;20076;-67
2023/01/18 05:55:58;;;;;;;10.55;6.05;;;;;;;0.91;90.12;99209.88;4691013;30;20053;-67
2023/01/18 05:58:27;;;;;;;13.75;6.90;;;;;;;0.92;90.13;99213.41;4704580;30;20110;-66
2023/01/18 06:00:55;;;;;;;11.13;6.00;;;;;;;0.94;89.89;99216.63;4719985;30;20076;-65
2023/01/18 06:03:27;;;;;;;12.70;6.13;;;;;;;0.96;90.05;99212.66;4704607;30;20113;-66
2023/01/18 06:05:54;;;;;;;12.30;7.00;;;;;;;0.99;90.18;99222.09;4704673;30;20495;-66
2023/01/18 06:08:22;;;;;;;16.67;7.68;;;;;;;0.96;89.23;99228.75;4702774;30;20048;-66
2023/01/18 06:10:54;;;;;;;12.75;6.28;;;;;;;0.95;89.51;99229.00;4718689;30;20128;-67
2023/01/18 06:13:22;;;;;;;16.13;7.70;;;;;;;0.93;89.14;99233.78;4065538;30;10000862;-67
2023/01/18 06:15:53;;;;;;;12.35;6.30;;;;;;;0.90;89.63;99239.63;4717619;30;20135;-66
2023/01/18 06:18:21;;;;;;;12.27;7.05;;;;;;;0.89;89.39;99243.34;4712252;30;20120;-68
2023/01/18 06:20:52;;;;;;;14.00;6.65;;;;;;;0.90;90.04;99245.81;4699100;30;20169;-66
2023/01/18 06:23:19;;;;;;;11.50;6.15;;;;;;;0.92;89.94;99242.88;4697068;30;20061;-68
2023/01/18 06:25:48;;;;;;;11.52;6.00;;;;;;;0.93;90.63;99250.66;4700282;30;20156;-69
2023/01/18 06:28:18;;;;;;;12.35;6.75;;;;;;;0.93;91.17;99252.53;4701647;30;20060;-66
2023/01/18 06:30:46;;;;;;;14.30;7.00;;;;;;;0.95;90.41;99255.81;4715364;30;20075;-69
2023/01/18 06:33:14;;;;;;;15.95;7.32;;;;;;;0.92;89.90;99258.97;4714981;30;20490;-68
2023/01/18 06:35:42;;;;;;;13.55;7.07;;;;;;;0.90;89.94;99266.44;4685605;30;20053;-68
2023/01/18 06:38:11;;;;;;;13.20;7.47;;;;;;;0.92;90.29;99264.34;4685481;30;20075;-67
2023/01/18 06:40:38;;;;;;;11.73;6.80;;;;;;;0.91;89.94;99266.19;4714998;30;20071;-67
2023/01/18 06:43:09;;;;;;;14.82;7.45;;;;;;;0.88;89.80;99269.38;4686720;30;20093;-66
2023/01/18 06:45:36;;;;;;;15.63;7.43;;;;;;;0.88;89.54;99276.59;4715381;30;20061;-66
2023/01/18 06:48:04;;;;;;;16.25;6.22;;;;;;;0.88;89.83;99280.09;4706882;30;20172;-68
2023/01/18 06:50:32;;;;;;;11.60;6.15;;;;;;;0.92;91.38;99288.47;4708593;30;20065;-67
2023/01/18 06:53:00;;;;;;;13.75;6.80;;;;;;;0.87;90.20;99291.03;4703842;30;20057;-66
2023/01/18 06:55:28;;;;;;;12.60;6.65;;;;;;;0.84;90.09;99285.13;4727731;30;20076;-67
2023/01/18 06:57:56;;;;;;;10.25;5.45;;;;;;;0.85;91.64;99292.13;4721074;30;20061;-65
2023/01/18 07:00:23;;;;;;;15.23;6.78;;;;;;;0.85;91.09;99292.13;4714777;30;20104;-63
2023/01/18 07:02:52;;;;;;;12.75;6.30;;;;;;;0.85;91.08;99296.66;4723369;30;20495;-67
2023/01/18 07:05:19;;;;;;;15.20;7.25;;;;;;;0.84;91.09;99295.03;4736115;30;20057;-64
2023/01/18 07:07:47;;;;;;;12.88;6.70;;;;;;;0.85;90.97;99299.34;4735133;30;20045;-66
2023/01/18 07:10:15;;;;;;;13.55;6.65;;;;;;;0.85;92.76;99307.41;4691434;30;20132;-66
2023/01/18 07:12:47;;;;;;;13.45;6.63;;;;;;;0.84;92.79;99311.94;4717486;30;20061;-69
2023/01/18 07:15:16;;;;;;;11.05;6.43;;;;;;;0.80;91.36;99312.66;4717287;30;20117;-66
2023/01/18 07:17:49;;;;;;;13.75;6.63;;;;;;;0.78;91.25;99315.56;4704356;30;20052;-67
2023/01/18 07:20:18;;;;;;;16.95;7.63;;;;;;;0.76;91.63;99317.69;4702497;30;20487;-69
2023/01/18 07:22:50;;;;;;;13.98;6.93;;;;;;;0.76;90.92;99320.38;4716079;30;20120;-66
2023/01/18 07:25:19;;;;;;;13.82;7.15;;;;;;;0.76;91.04;99319.56;4714266;30;20057;-67
2023/01/18 07:27:47;;;;;;;13.45;7.28;;;;;;;0.79;91.93;99319.06;4715981;30;20121;-68
2023/01/18 07:30:16;;;;;;;10.93;6.72;;;;;;;0.77;91.26;99322.00;4715903;30;20057;-68
2023/01/18 07:32:51;;;;;;;19.23;8.63;;;;;;;0.64;90.95;99322.28;4716546;30;20057;-68
2023/01/18 07:35:21;;;;;;;14.93;8.63;;;;;;;0.54;91.03;99325.59;4714506;30;20064;-68
2023/01/18 07:37:53;;;;;;;20.35;9.38;;;;;;;0.50;91.65;99334.34;4715449;30;20127;-66
2023/01/18 07:40:21;;;;;;;14.70;8.95;;;;;;;0.47;92.30;99327.59;4715422;30;20064;-66
2023/01/18 07:42:55;;;;;;;14.30;7.45;;;;;;;0.55;92.57;99337.94;4714308;30;20503;-67
2023/01/18 07:45:23;;;;;;;12.38;7.00;;;;;;;0.64;94.00;99338.38;4700463;30;20071;-69
2023/01/18 07:47:52;;;;;;;12.45;7.93;;;;;;;0.68;93.78;99339.53;4715605;30;20088;-66
2023/01/18 07:50:23;;;;;;;15.75;8.73;;;;;;;0.70;93.21;99342.78;4713937;30;20123;-69
2023/01/18 07:52:50;;;;;;;12.77;7.05;;;;;;;0.73;94.11;99339.63;4715506;30;20056;-66
2023/01/18 07:55:20;;;;;;;14.98;7.13;;;;;;;0.76;94.71;99344.50;4700729;30;20143;-69
2023/01/18 07:57:48;;;;;;;14.98;7.45;;;;;;;0.79;95.70;99349.38;4714024;30;20491;-68
2023/01/18 08:00:16;;;;;;;12.30;7.53;;;;;;;0.81;96.25;99355.31;4714333;30;20135;-66
2023/01/18 08:02:43;;;;;;;12.30;7.53;;;;;;;0.85;97.99;99356.47;4716173;30;20057;-66
2023/01/18 08:05:11;;;;;;;12.60;7.63;;;;;;;0.83;96.66;99363.13;4715441;30;20053;-68
2023/01/18 08:07:39;;;;;;;12.68;7.28;;;;;;;0.81;96.39;99357.19;4699887;30;20495;-70
2023/01/18 08:10:07;;;;;;;13.98;6.85;;;;;;;0.82;96.16;99356.94;4699787;30;20048;-70
2023/01/18 08:12:35;;;;;;;12.93;6.90;;;;;;;0.84;97.12;99357.53;4707093;30;20071;-68
2023/01/18 08:15:03;;;;;;;13.60;7.32;;;;;;;0.83;96.05;99363.91;4714965;30;20087;-68
2023/01/18 08:17:31;;;;;;;12.50;7.20;;;;;;;0.83;96.59;99369.28;4714731;30;20418;-69
2023/01/18 08:19:58;;;;;;;11.77;7.28;;;;;;;0.81;95.67;99379.44;4715372;30;20061;-66
2023/01/18 08:22:27;;;;;;;12.55;6.72;;;;;;;0.80;95.50;99375.13;4686882;30;20065;-67
2023/01/18 08:24:55;;;;;;;13.35;7.85;;;;;;;0.82;96.05;99378.41;4716940;30;20152;-66
2023/01/18 08:27:23;;;;;;;12.25;6.70;;;;;;;0.80;94.79;99385.06;4718046;30;20053;-66
2023/01/18 08:29:53;;;;;;;13.95;7.40;;;;;;;0.81;94.96;99384.78;4702658;30;20564;-67
2023/01/18 08:32:21;;;;;;;12.38;7.43;;;;;;;0.80;94.11;99385.84;4702362;30;20061;-66
2023/01/18 08:34:49;;;;;;;12.70;6.72;;;;;;;0.80;94.59;99385.84;4704055;30;20049;-66
2023/01/18 08:37:17;;;;;;;15.32;7.68;;;;;;;0.79;94.09;99389.56;4717018;30;20089;-67
2023/01/18 08:39:44;;;;;;;15.10;8.65;;;;;;;0.80;94.58;99398.47;4702678;30;20506;-67
2023/01/18 08:42:12;;;;;;;16.98;8.07;;;;;;;0.80;94.57;99391.22;4718245;30;20060;-65
2023/01/18 08:44:40;;;;;;;23.15;10.02;;;;;;;0.99;100.00;99393.72;4703242;30;20454;-65
2023/01/18 08:47:08;;;;;;;17.20;7.97;;;;;;;1.05;99.43;99395.41;4719368;30;20057;-66
2023/01/18 08:49:35;;;;;;;17.83;8.60;;;;;;;1.03;97.18;99406.41;4721609;30;20135;-66
2023/01/18 08:52:03;;;;;;;17.63;8.23;;;;;;;1.00;96.71;99400.69;4706659;30;20165;-66
2023/01/18 08:54:31;;;;;;;17.05;8.85;;;;;;;0.98;96.92;99414.34;4720152;30;20538;-66
2023/01/18 08:57:00;;;;;;;15.40;8.82;;;;;;;0.96;96.03;99418.31;4706335;30;20444;-67
2023/01/18 08:59:28;;;;;;;14.98;7.95;;;;;;;0.93;96.04;99413.44;4720607;30;20061;-67
2023/01/18 09:01:57;;;;;;;15.82;7.35;;;;;;;1.03;100.00;99418.97;4721560;30;20053;-66
2023/01/18 09:04:27;;;;;;;17.30;7.93;;;;;;;1.01;97.79;99418.41;4721525;30;20064;-66
2023/01/18 09:06:57;;;;;;;14.23;7.60;;;;;;;0.98;96.31;99430.44;4720044;30;20111;-67
2023/01/18 09:09:24;;;;;;;19.02;7.63;;;;;;;1.05;99.94;99424.94;4705594;30;20065;-66
2023/01/18 09:11:52;;;;;;;16.20;7.35;;;;;;;1.03;98.01;99427.03;4721613;30;20049;-66
2023/01/18 09:14:20;;;;;;;16.50;8.13;;;;;;;1.03;98.28;99430.56;4722893;30;20068;-66
2023/01/18 09:16:49;;;;;;;15.30;7.32;;;;;;;1.06;98.43;99431.94;4707998;30;20053;-67
2023/01/18 09:19:16;;;;;;;16.00;7.50;;;;;;;1.13;100.00;99442.50;4707684;30;20143;-66
2023/01/18 09:21:45;;;;;;;15.60;7.50;;;;;;;1.12;100.00;99447.06;4706485;30;20115;-65
2023/01/18 09:24:13;;;;;;;14.20;7.40;;;;;;;1.16;100.00;99447.41;4722384;30;20065;-65
2023/01/18 09:26:40;;;;;;;18.25;8.50;;;;;;;1.19;100.00;99453.09;4720729;30;20050;-67
2023/01/18 09:29:11;;;;;;;14.55;7.88;;;;;;;1.12;98.84;99454.28;4725188;30;20380;-66
2023/01/18 09:31:39;;;;;;;19.63;9.60;;;;;;;1.10;98.57;99459.88;4725452;30;20061;-67
2023/01/18 09:34:06;;;;;;;14.05;7.93;;;;;;;1.08;97.23;99462.00;4726703;30;20462;-67
2023/01/18 09:36:48;;;;;;;14.45;7.65;;;;;;;1.10;99.29;99470.63;4712277;30;20112;-68
2023/01/18 09:39:16;;;;;;;14.75;7.22;;;;;;;1.18;100.00;99472.94;4707208;30;20115;-66
2023/01/18 09:41:51;;;;;;;12.85;7.60;;;;;;;1.16;100.00;99471.53;4721323;30;20053;-66
2023/01/18 09:44:21;;;;;;;14.85;8.40;;;;;;;1.18;100.00;99467.56;4705719;30;20059;-65
2023/01/18 09:47:04;;;;;;;15.30;7.60;;;;;;;1.17;100.00;99465.91;4721231;30;20087;-67
2023/01/18 09:49:38;;;;;;;14.77;8.45;;;;;;;1.16;98.79;99475.03;4720282;30;20061;-66
2023/01/18 09:52:19;;;;;;;14.25;8.13;;;;;;;1.17;98.67;99482.03;4704708;30;20084;-67
2023/01/18 09:55:02;;;;;;;14.65;7.63;;;;;;;1.17;98.35;99476.66;4720757;30;20056;-66
2023/01/18 09:57:59;;;;;;;13.38;7.28;;;;;;;1.21;97.95;99483.19;4720421;30;20057;-66
2023/01/18 10:00:32;;;;;;;14.18;7.40;;;;;;;1.32;100.00;99488.72;4719086;30;20053;-67
2023/01/18 10:03:30;;;;;;;14.18;7.00;;;;;;;1.50;100.00;99483.16;4718887;30;20061;-66
2023/01/18 10:06:08;;;;;;;15.07;7.10;;;;;;;1.54;100.00;99483.47;4690984;30;20116;-66
2023/01/18 10:08:57;;;;;;;13.73;7.43;;;;;;;1.49;100.00;99484.22;4720301;30;20088;-67
2023/01/18 10:11:30;;;;;;;15.15;7.28;;;;;;;1.67;100.00;99497.41;4720230;30;20057;-67
2023/01/18 10:14:18;;;;;;;13.05;6.68;;;;;;;1.56;100.00;99495.59;4720365;30;20064;-67
2023/01/18 10:16:52;;;;;;;15.82;7.32;;;;;;;1.58;100.00;99488.13;4716885;30;20063;-68
2023/01/18 10:19:29;;;;;;;12.50;6.40;;;;;;;1.65;100.00;99494.16;4718708;30;20049;-66
2023/01/18 10:21:59;;;;;;;14.00;7.00;;;;;;;1.62;100.00;99491.97;4720222;30;20135;-66
2023/01/18 10:24:54;;;;;;;13.35;6.90;;;;;;;1.63;100.00;99488.22;4698292;30;20120;-66
2023/01/18 10:27:44;;;;;;;12.25;6.20;;;;;;;1.72;100.00;99493.19;4685492;30;20050;-68
2023/01/18 10:30:27;;;;;;;11.05;5.85;;;;;;;1.77;100.00;99491.41;4656450;30;20086;-66
2023/01/18 10:33:05;;;;;;;13.55;6.15;;;;;;;1.88;100.00;99492.41;4685214;30;20547;-67
2023/01/18 10:35:40;;;;;;;11.82;6.20;;;;;;;1.94;100.00;99496.78;4685803;30;20053;-68
2023/01/18 10:38:12;;;;;;;12.68;6.05;;;;;;;1.85;100.00;99498.25;4715941;30;20062;-62
2023/01/18 10:40:39;;;;;;;14.05;6.38;;;;;;;1.95;100.00;99493.06;4699822;30;20080;-65
2023/01/18 10:43:14;;;;;;;14.32;5.50;;;;;;;2.20;100.00;99503.38;4687310;30;20452;-66
2023/01/18 10:45:42;;;;;;;12.98;6.65;;;;;;;2.13;100.00;99500.84;4710767;30;20097;-60
2023/01/18 10:48:23;;;;;;;14.18;5.93;;;;;;;2.28;100.00;99499.47;4700981;30;20058;-59
2023/01/18 10:50:54;;;;;;;10.95;5.82;;;;;;;2.21;100.00;99498.81;4706751;30;20054;-67
2023/01/18 10:53:31;;;;;;;12.30;6.68;;;;;;;2.05;100.00;99509.34;4685741;30;20058;-65
2023/01/18 10:56:13;;;;;;;11.75;6.55;;;;;;;2.08;100.00;99505.34;4684401;30;20056;-67
2023/01/18 10:58:50;;;;;;;10.88;5.28;;;;;;;2.17;100.00;99509.25;4684226;30;20061;-68
2023/01/18 11:01:24;;;;;;;11.77;5.03;;;;;;;2.30;100.00;99510.78;4685359;30;20058;-67
2023/01/18 11:04:07;;;;;;;11.02;6.30;;;;;;;2.10;100.00;99506.72;4683884;30;20061;-68
2023/01/18 11:07:00;;;;;;;12.90;5.68;;;;;;;2.29;100.00;99509.97;4697778;30;20112;-69
2023/01/18 11:09:41;;;;;;;13.80;5.68;;;;;;;2.29;100.00;99520.72;4696835;30;20479;-68
2023/01/18 11:12:37;;;;;;;11.15;5.30;;;;;;;2.56;100.00;99515.47;4683141;30;20116;-69
2023/01/18 11:15:13;;;;;;;15.02;6.72;;;;;;;2.53;100.00;99521.34;4667231;30;20082;-69
2023/01/18 11:17:56;;;;;;;11.35;5.93;;;;;;;2.43;100.00;99523.91;4683300;30;20516;-68
2023/01/18 11:20:44;;;;;;;10.60;5.00;;;;;;;2.39;100.00;99520.06;4696837;30;20062;-69
2023/01/18 11:23:25;;;;;;;11.23;5.70;;;;;;;2.29;100.00;99514.53;4682754;30;20140;-67
2023/01/18 11:26:06;;;;;;;10.65;5.18;;;;;;;2.42;100.00;99511.50;4682690;30;20493;-66
2023/01/18 11:28:38;;;;;;;11.30;5.00;;;;;;;2.51;100.00;99506.53;4696504;30;20046;-67
2023/01/18 11:31:18;;;;;;;11.30;5.40;;;;;;;2.69;100.00;99505.41;4691007;30;20420;-68
2023/01/18 11:33:59;;;;;;;14.20;5.70;;;;;;;2.54;100.00;99501.47;4697287;30;20405;-68
2023/01/18 11:36:39;;;;;;;11.70;5.47;;;;;;;2.79;100.00;99502.88;4683688;30;20053;-67
2023/01/18 11:39:28;;;;;;;11.48;6.18;;;;;;;2.77;100.00;99499.63;4697334;30;20419;-66
2023/01/18 11:42:27;;;;;;;11.70;4.93;;;;;;;2.91;100.00;99500.03;4697356;30;20088;-67
2023/01/18 11:45:13;;;;;;;10.02;5.38;;;;;;;2.90;100.00;99493.84;4696880;30;20058;-67
2023/01/18 11:47:53;;;;;;;;;;;;;;;3.07;100.00;99492.97;4697406;30;20084;-67
2023/01/18 11:50:39;;;;;;;10.75;5.28;;;;;;;3.14;100.00;99499.00;4697017;30;20026;-67
2023/01/18 11:53:12;;;;;;;;;;;;;;;2.93;100.00;99508.69;4683492;30;20129;-67
2023/01/18 11:56:05;;;;;;;9.68;4.90;;;;;;;2.80;100.00;99512.56;4697591;30;19962;-67
2023/01/18 11:58:34;;;;;;;12.07;5.30;;;;;;;2.95;100.00;99515.44;4696873;30;20050;-67
2023/01/18 12:01:25;;;;;;;10.75;5.25;;;;;;;2.98;100.00;99516.81;4684257;30;20077;-66
2023/01/18 12:04:01;;;;;;;11.77;5.68;;;;;;;2.98;100.00;99511.44;4685807;30;20062;-63
2023/01/18 12:06:44;;;;;;;12.60;5.90;;;;;;;2.71;100.00;99514.88;4682485;30;20136;-64
2023/01/18 12:09:31;;;;;;;11.57;5.90;;;;;;;2.56;100.00;99523.53;4696432;30;20054;-66
2023/01/18 12:12:20;;;;;;;13.10;5.57;;;;;;;2.53;100.00;99532.09;4693892;30;20061;-65
2023/01/18 12:15:17;;;;;;;9.93;4.60;;;;;;;2.65;100.00;99526.63;4670653;30;20077;-65
2023/01/18 12:18:13;;;;;;;10.63;5.65;;;;;;;2.53;100.00;99524.03;4682709;30;20064;-64
2023/01/18 12:20:59;;;;;;;9.63;5.00;;;;;;;2.66;100.00;99524.75;4686280;30;20084;-64
2023/01/18 12:23:39;;;;;;;10.07;5.38;;;;;;;2.70;100.00;99524.00;4675868;30;20058;-65
2023/01/18 12:26:45;;;;;;;11.60;5.32;;;;;;;2.68;100.00;99533.38;4703392;30;20503;-64
2023/01/18 12:29:35;;;;;;;11.65;5.90;;;;;;;2.66;100.00;99530.94;4720209;30;20045;-65
2023/01/18 12:32:32;;;;;;;11.40;5.68;;;;;;;2.72;100.00;99534.53;4700079;30;20055;-66
2023/01/18 12:35:14;;;;;;;9.88;5.03;;;;;;;2.72;100.00;99534.53;4696608;30;20076;-64